createdAt,value
2022-10-17T00:00:26.024Z,93.77
2022-10-17T00:03:00.952Z,92.92
2022-10-17T00:05:37.321Z,94.24
2022-10-17T00:08:22.333Z,94.12
2022-10-17T00:11:14.068Z,94.12
2022-10-17T00:17:32.043Z,94.17
2022-10-17T00:20:10.750Z,95.59
2022-10-17T00:22:37.527Z,96.41
2022-10-17T00:25:07.747Z,95.79
2022-10-17T00:27:46.702Z,94.11
2022-10-17T00:30:24.353Z,95.94
2022-10-17T00:33:13.836Z,94.96
2022-10-17T00:35:56.430Z,96.62
2022-10-17T00:38:28.756Z,96.04
2022-10-17T00:41:07.055Z,96.83
2022-10-17T00:44:08.230Z,97.30
2022-10-17T00:48:22.526Z,96.26
2022-10-17T00:50:26.541Z,95.12
2022-10-17T00:53:10.643Z,95.12
2022-10-17T00:55:52.655Z,93.74
2022-10-17T00:58:25.280Z,95.52
2022-10-17T01:01:07.804Z,95.62
2022-10-17T01:03:37.483Z,94.90
2022-10-17T01:06:10.004Z,96.64
2022-10-17T01:08:42.660Z,97.94
2022-10-17T01:11:30.994Z,95.30
2022-10-17T01:14:28.676Z,94.17
2022-10-17T01:17:22.450Z,94.78
2022-10-17T01:20:08.170Z,94.12
2022-10-17T01:22:47.625Z,93.78
2022-10-17T01:25:46.721Z,94.36
2022-10-17T01:28:54.862Z,93.12
2022-10-17T01:31:40.243Z,95.04
2022-10-17T01:34:22.632Z,96.16
2022-10-17T01:37:20.699Z,96.58
2022-10-17T01:40:07.743Z,96.32
2022-10-17T01:43:21.812Z,97.02
2022-10-17T01:46:33.975Z,96.89
2022-10-17T01:49:18.832Z,95.27
2022-10-17T01:52:17.111Z,95.59
2022-10-17T01:54:52.714Z,95.20
2022-10-17T02:00:40.282Z,94.74
2022-10-17T02:04:18.640Z,96.45
2022-10-17T02:06:50.526Z,95.56
2022-10-17T02:09:27.907Z,95.55
2022-10-17T02:12:40.569Z,94.64
2022-10-17T02:19:03.391Z,96.10
2022-10-17T02:22:05.122Z,98.67
2022-10-17T02:24:55.268Z,97.84
2022-10-17T02:27:35.857Z,96.56
2022-10-17T02:30:32.566Z,98.55
2022-10-17T02:33:43.126Z,98.99
2022-10-17T02:36:38.298Z,98.54
2022-10-17T02:39:32.661Z,98.28
2022-10-17T02:42:16.344Z,97.82
2022-10-17T02:44:53.035Z,99.12
2022-10-17T02:47:45.176Z,98.57
2022-10-17T02:50:36.822Z,99.02
2022-10-17T02:53:14.010Z,99.78
2022-10-17T02:56:02.536Z,99.75
2022-10-17T02:59:00.434Z,100.00
2022-10-17T03:01:48.222Z,99.16
2022-10-17T03:04:33.653Z,100.00
2022-10-17T03:07:10.499Z,100.00
2022-10-17T03:10:05.216Z,99.38
2022-10-17T03:12:41.135Z,99.42
2022-10-17T03:19:21.641Z,98.84
2022-10-17T03:21:57.467Z,99.01
2022-10-17T03:24:24.401Z,100.00
2022-10-17T04:24:26.656Z,100.00
2022-10-17T04:33:36.973Z,100.00
2022-10-17T04:36:34.687Z,100.00
2022-10-17T04:39:10.772Z,100.00
2022-10-17T04:41:49.018Z,100.00
2022-10-17T04:44:18.956Z,100.00
2022-10-17T04:47:14.118Z,100.00
2022-10-17T04:52:34.382Z,100.00
2022-10-17T04:55:00.980Z,100.00
2022-10-17T04:57:39.705Z,100.00
2022-10-17T05:00:12.822Z,100.00
2022-10-17T05:02:41.813Z,99.88
2022-10-17T05:05:31.264Z,99.43
2022-10-17T05:14:59.280Z,100.00
2022-10-17T05:31:45.579Z,99.84
2022-10-17T05:34:35.048Z,100.00
2022-10-17T05:37:19.412Z,100.00
2022-10-17T05:41:13.285Z,100.00
2022-10-17T05:48:15.141Z,100.00
2022-10-17T05:51:20.064Z,100.00
2022-10-17T05:53:58.461Z,100.00
2022-10-17T06:04:38.076Z,100.00
2022-10-17T06:07:09.900Z,100.00
2022-10-17T07:15:28.161Z,100.00
2022-10-17T07:18:00.965Z,100.00
2022-10-17T07:20:35.637Z,100.00
2022-10-17T07:23:05.556Z,100.00
2022-10-17T07:25:40.147Z,100.00
2022-10-17T07:28:09.573Z,100.00
2022-10-17T07:30:36.178Z,100.00
2022-10-17T07:33:07.795Z,100.00
2022-10-17T07:35:41.865Z,100.00
2022-10-17T07:38:16.667Z,100.00
2022-10-17T07:40:43.806Z,100.00
2022-10-17T07:43:14.791Z,100.00
2022-10-17T07:45:41.808Z,100.00
2022-10-17T07:48:09.821Z,100.00
2022-10-17T07:50:39.809Z,100.00
2022-10-17T07:53:06.740Z,100.00
2022-10-17T07:55:45.088Z,100.00
2022-10-17T08:05:56.160Z,99.42
2022-10-17T08:09:11.408Z,98.74
2022-10-17T08:18:25.428Z,95.30
2022-10-17T08:21:00.317Z,97.27
2022-10-17T08:23:35.964Z,97.57
2022-10-17T08:26:33.013Z,94.72
2022-10-17T09:04:53.235Z,88.05
2022-10-17T09:07:32.826Z,87.86
2022-10-17T09:10:21.933Z,84.41
2022-10-17T09:17:54.700Z,83.79
2022-10-17T09:24:15.415Z,84.94
2022-10-17T09:26:47.473Z,85.49
2022-10-17T09:29:55.143Z,81.69
2022-10-17T09:32:34.921Z,80.30
2022-10-17T09:43:45.086Z,79.15
2022-10-17T09:46:33.091Z,77.39
2022-10-17T09:49:12.313Z,75.48
2022-10-17T09:51:48.292Z,75.56
2022-10-17T09:55:09.091Z,78.45
2022-10-17T09:58:04.753Z,75.49
2022-10-17T10:01:11.170Z,77.41
2022-10-17T10:03:37.821Z,74.23
2022-10-17T10:07:06.627Z,73.90
2022-10-17T10:09:51.732Z,76.12
2022-10-17T10:12:34.000Z,72.40
2022-10-17T10:15:34.259Z,71.50
2022-10-17T10:18:23.070Z,72.53
2022-10-17T10:21:13.121Z,70.18
2022-10-17T10:23:47.965Z,70.29
2022-10-17T10:26:29.657Z,75.79
2022-10-17T10:29:01.720Z,75.88
2022-10-17T10:31:39.873Z,73.83
2022-10-17T10:34:43.316Z,71.45
2022-10-17T10:37:20.375Z,69.31
2022-10-17T10:39:57.478Z,68.43
2022-10-17T10:42:39.476Z,68.99
2022-10-17T10:45:43.226Z,66.96
2022-10-17T10:48:39.381Z,67.12
2022-10-17T10:51:14.632Z,67.42
2022-10-17T10:53:52.771Z,70.24
2022-10-17T10:56:58.304Z,73.59
2022-10-17T10:59:45.966Z,69.45
2022-10-17T11:02:28.315Z,66.82
2022-10-17T11:05:22.570Z,68.49
2022-10-17T11:08:22.201Z,68.78
2022-10-17T11:11:01.148Z,66.45
2022-10-17T11:13:53.301Z,65.08
2022-10-17T11:16:49.598Z,65.51
2022-10-17T11:19:31.390Z,65.69
2022-10-17T11:22:28.174Z,66.74
2022-10-17T11:25:05.680Z,65.62
2022-10-17T11:27:37.522Z,70.93
2022-10-17T11:30:57.927Z,71.47
2022-10-17T11:33:58.960Z,70.15
2022-10-17T11:36:35.561Z,65.88
2022-10-17T11:39:18.318Z,64.87
2022-10-17T11:42:06.879Z,62.55
2022-10-17T11:44:40.427Z,62.10
2022-10-17T11:47:16.892Z,61.20
2022-10-17T11:53:56.513Z,60.70
2022-10-17T11:56:43.154Z,60.79
2022-10-17T11:59:31.267Z,61.29
2022-10-17T12:04:59.245Z,59.93
2022-10-17T12:07:48.626Z,58.07
2022-10-17T12:11:04.713Z,58.41
2022-10-17T12:14:04.963Z,57.60
2022-10-17T12:16:48.941Z,57.64
2022-10-17T12:19:26.580Z,61.17
2022-10-17T12:29:05.844Z,57.31
2022-10-17T12:31:45.836Z,55.74
2022-10-17T12:34:22.467Z,57.54
2022-10-17T12:36:55.332Z,59.12
2022-10-17T13:02:41.561Z,60.62
2022-10-17T13:05:18.933Z,58.66
2022-10-17T13:08:09.273Z,57.15
2022-10-17T13:10:43.067Z,59.33
2022-10-17T13:13:52.172Z,58.98
2022-10-17T13:19:26.924Z,57.91
2022-10-17T13:22:02.262Z,59.38
2022-10-17T13:25:08.760Z,58.44
2022-10-17T13:27:44.269Z,58.51
2022-10-17T13:31:23.089Z,58.81
2022-10-17T13:33:57.258Z,60.15
2022-10-17T13:36:26.625Z,56.26
2022-10-17T13:43:48.123Z,57.91
2022-10-17T13:46:39.797Z,59.17
2022-10-17T13:49:29.894Z,61.59
2022-10-17T13:52:44.906Z,58.51
2022-10-17T14:05:32.152Z,56.36
2022-10-17T14:50:17.396Z,57.85
2022-10-17T14:53:40.599Z,58.50
2022-10-17T15:19:09.009Z,65.29
2022-10-17T17:45:45.056Z,87.97
2022-10-17T17:48:31.886Z,87.46
2022-10-17T21:30:43.060Z,94.97
2022-10-17T21:33:25.625Z,96.36
2022-10-17T21:36:17.455Z,96.25
2022-10-17T21:49:28.011Z,96.63
2022-10-17T21:52:13.802Z,96.42
2022-10-17T21:54:40.454Z,95.25
2022-10-17T21:57:07.138Z,94.67
2022-10-17T21:59:35.583Z,94.99
2022-10-17T22:02:04.440Z,96.46
2022-10-17T22:04:31.513Z,96.94
2022-10-17T22:06:58.370Z,95.93
2022-10-17T22:09:26.341Z,95.56
2022-10-17T22:11:55.712Z,95.12
2022-10-17T22:14:24.984Z,95.61
2022-10-17T22:19:41.794Z,96.21
2022-10-17T22:22:08.665Z,95.98
2022-10-17T22:24:36.356Z,95.75
2022-10-17T22:27:03.161Z,96.13
2022-10-17T22:29:34.004Z,95.19
2022-10-17T22:32:01.729Z,97.04
2022-10-17T22:34:28.542Z,97.02
2022-10-17T22:36:54.994Z,96.19
2022-10-17T22:39:21.624Z,96.69
2022-10-17T22:41:50.567Z,96.10
2022-10-17T22:44:57.290Z,96.50
2022-10-17T22:47:27.168Z,97.23
2022-10-17T22:49:54.169Z,95.30
2022-10-17T22:52:23.819Z,94.57
2022-10-17T22:54:50.620Z,95.96
2022-10-17T22:57:17.245Z,95.91
2022-10-17T22:59:46.848Z,97.30
2022-10-17T23:02:13.383Z,96.96
2022-10-17T23:04:40.080Z,97.27
2022-10-17T23:07:13.235Z,96.50
2022-10-17T23:09:41.724Z,97.23
2022-10-17T23:12:09.412Z,96.99
2022-10-17T23:14:40.629Z,97.31
2022-10-17T23:17:07.243Z,95.78
2022-10-17T23:19:34.279Z,95.89
2022-10-17T23:22:03.857Z,96.34
2022-10-17T23:24:30.493Z,96.37
2022-10-17T23:26:57.232Z,96.90
2022-10-17T23:29:24.063Z,96.95
2022-10-17T23:31:58.718Z,97.29
2022-10-17T23:34:25.601Z,97.15
2022-10-17T23:37:03.235Z,96.03
2022-10-17T23:39:29.850Z,95.45
2022-10-17T23:41:56.589Z,94.87
2022-10-17T23:44:23.811Z,94.70
2022-10-17T23:46:50.560Z,95.21
2022-10-17T23:49:17.015Z,95.37
2022-10-17T23:51:43.585Z,96.46
2022-10-17T23:54:10.094Z,96.71
2022-10-17T23:56:36.683Z,96.31
2022-10-17T23:59:03.315Z,95.54
